sensor_id;sensor_type;location;lat;lon;timestamp;pressure;altitude;pressure_sealevel;temperature;humidity
72570;BME280;60594;50.204;8.844;2023-01-29T00:01:50;101347.53;;;0.81;73.52
72570;BME280;60594;50.204;8.844;2023-01-29T00:04:17;101363.09;;;0.88;71.32
72570;BME280;60594;50.204;8.844;2023-01-29T00:06:43;101357.13;;;0.82;72.48
72570;BME280;60594;50.204;8.844;2023-01-29T00:09:10;101355.50;;;0.76;70.78
72570;BME280;60594;50.204;8.844;2023-01-29T00:11:38;101356.19;;;0.84;70.50
72570;BME280;60594;50.204;8.844;2023-01-29T00:14:06;101346.03;;;0.69;70.04
72570;BME280;60594;50.204;8.844;2023-01-29T00:16:32;101356.59;;;0.66;70.11
72570;BME280;60594;50.204;8.844;2023-01-29T00:19:00;101376.81;;;0.61;69.77
72570;BME280;60594;50.204;8.844;2023-01-29T00:21:27;101370.88;;;0.53;70.56
72570;BME280;60594;50.204;8.844;2023-01-29T00:23:57;101371.03;;;0.44;71.28
72570;BME280;60594;50.204;8.844;2023-01-29T00:26:24;101373.59;;;0.47;70.78
72570;BME280;60594;50.204;8.844;2023-01-29T00:28:52;101379.78;;;0.45;72.97
72570;BME280;60594;50.204;8.844;2023-01-29T00:31:20;101383.03;;;0.56;72.11
72570;BME280;60594;50.204;8.844;2023-01-29T00:33:49;101378.50;;;0.64;70.76
72570;BME280;60594;50.204;8.844;2023-01-29T00:36:19;101370.75;;;0.59;70.69
72570;BME280;60594;50.204;8.844;2023-01-29T00:38:46;101378.63;;;0.59;70.72
72570;BME280;60594;50.204;8.844;2023-01-29T00:41:20;101369.91;;;0.57;71.20
72570;BME280;60594;50.204;8.844;2023-01-29T00:44:06;101361.25;;;0.54;72.17
72570;BME280;60594;50.204;8.844;2023-01-29T00:46:51;101359.34;;;0.19;72.54
72570;BME280;60594;50.204;8.844;2023-01-29T00:49:18;101360.38;;;-0.37;75.71
72570;BME280;60594;50.204;8.844;2023-01-29T00:51:44;101359.94;;;-0.11;74.98
72570;BME280;60594;50.204;8.844;2023-01-29T00:54:31;101353.50;;;0.05;73.45
72570;BME280;60594;50.204;8.844;2023-01-29T00:56:57;101345.56;;;0.10;74.61
72570;BME280;60594;50.204;8.844;2023-01-29T00:59:24;101352.09;;;0.32;72.70
72570;BME280;60594;50.204;8.844;2023-01-29T01:01:50;101346.66;;;0.41;72.17
72570;BME280;60594;50.204;8.844;2023-01-29T01:04:35;101333.66;;;0.35;73.26
72570;BME280;60594;50.204;8.844;2023-01-29T01:07:02;101332.81;;;0.34;74.93
72570;BME280;60594;50.204;8.844;2023-01-29T01:09:28;101333.78;;;0.30;74.35
72570;BME280;60594;50.204;8.844;2023-01-29T01:12:13;101338.72;;;0.44;73.53
72570;BME280;60594;50.204;8.844;2023-01-29T01:14:40;101345.56;;;0.52;72.76
72570;BME280;60594;50.204;8.844;2023-01-29T01:17:08;101327.97;;;0.56;72.55
72570;BME280;60594;50.204;8.844;2023-01-29T01:19:35;101328.88;;;0.55;74.00
72570;BME280;60594;50.204;8.844;2023-01-29T01:22:01;101340.03;;;0.64;73.37
72570;BME280;60594;50.204;8.844;2023-01-29T01:24:30;101339.97;;;0.67;75.43
72570;BME280;60594;50.204;8.844;2023-01-29T01:26:57;101324.31;;;0.64;75.58
72570;BME280;60594;50.204;8.844;2023-01-29T01:29:23;101323.25;;;0.73;73.84
72570;BME280;60594;50.204;8.844;2023-01-29T01:31:52;101332.22;;;0.61;73.67
72570;BME280;60594;50.204;8.844;2023-01-29T01:34:19;101298.19;;;0.58;74.61
72570;BME280;60594;50.204;8.844;2023-01-29T01:36:48;101312.84;;;0.68;73.64
72570;BME280;60594;50.204;8.844;2023-01-29T01:39:14;101301.34;;;0.74;73.20
72570;BME280;60594;50.204;8.844;2023-01-29T01:41:41;101294.44;;;0.70;73.01
72570;BME280;60594;50.204;8.844;2023-01-29T01:47:13;101300.84;;;0.57;74.50
72570;BME280;60594;50.204;8.844;2023-01-29T01:49:42;101291.97;;;0.62;72.52
72570;BME280;60594;50.204;8.844;2023-01-29T01:52:09;101291.91;;;0.65;71.81
72570;BME280;60594;50.204;8.844;2023-01-29T01:54:37;101291.91;;;0.65;73.55
72570;BME280;60594;50.204;8.844;2023-01-29T01:57:09;101287.59;;;0.64;73.26
72570;BME280;60594;50.204;8.844;2023-01-29T01:59:45;101278.06;;;0.60;72.25
72570;BME280;60594;50.204;8.844;2023-01-29T02:02:14;101293.69;;;0.65;74.69
72570;BME280;60594;50.204;8.844;2023-01-29T02:05:00;101286.84;;;0.59;72.34
72570;BME280;60594;50.204;8.844;2023-01-29T02:07:48;101288.53;;;0.62;73.10
72570;BME280;60594;50.204;8.844;2023-01-29T02:10:37;101276.53;;;0.50;73.88
72570;BME280;60594;50.204;8.844;2023-01-29T02:13:05;101286.03;;;0.56;73.91
72570;BME280;60594;50.204;8.844;2023-01-29T02:15:32;101279.22;;;0.47;72.79
72570;BME280;60594;50.204;8.844;2023-01-29T02:17:59;101287.09;;;0.47;73.34
72570;BME280;60594;50.204;8.844;2023-01-29T02:20:28;101282.00;;;0.41;72.33
72570;BME280;60594;50.204;8.844;2023-01-29T02:26:07;101286.31;;;0.44;72.80
72570;BME280;60594;50.204;8.844;2023-01-29T02:28:53;101301.06;;;0.48;73.54
72570;BME280;60594;50.204;8.844;2023-01-29T02:31:43;101288.94;;;0.42;72.41
72570;BME280;60594;50.204;8.844;2023-01-29T02:37:08;101311.63;;;0.45;71.71
72570;BME280;60594;50.204;8.844;2023-01-29T02:39:49;101321.22;;;0.44;71.38
72570;BME280;60594;50.204;8.844;2023-01-29T02:42:34;101329.22;;;0.40;72.77
72570;BME280;60594;50.204;8.844;2023-01-29T02:47:41;101320.72;;;0.27;71.76
72570;BME280;60594;50.204;8.844;2023-01-29T02:53:04;101335.66;;;0.22;72.08
72570;BME280;60594;50.204;8.844;2023-01-29T02:55:52;101331.38;;;0.18;72.95
72570;BME280;60594;50.204;8.844;2023-01-29T02:58:32;101328.03;;;0.12;72.52
72570;BME280;60594;50.204;8.844;2023-01-29T03:01:06;101330.66;;;0.12;72.64
72570;BME280;60594;50.204;8.844;2023-01-29T03:03:40;101324.63;;;0.08;71.88
72570;BME280;60594;50.204;8.844;2023-01-29T03:08:54;101313.25;;;0.09;71.91
72570;BME280;60594;50.204;8.844;2023-01-29T03:11:23;101308.03;;;0.08;72.44
72570;BME280;60594;50.204;8.844;2023-01-29T03:13:59;101310.66;;;0.08;74.02
72570;BME280;60594;50.204;8.844;2023-01-29T03:16:37;101303.66;;;0.08;72.90
72570;BME280;60594;50.204;8.844;2023-01-29T03:19:11;101313.69;;;-0.15;73.60
72570;BME280;60594;50.204;8.844;2023-01-29T03:21:51;101308.78;;;-0.79;73.53
72570;BME280;60594;50.204;8.844;2023-01-29T03:24:33;101317.72;;;-0.93;74.84
72570;BME280;60594;50.204;8.844;2023-01-29T03:27:24;101316.22;;;-0.56;75.06
72570;BME280;60594;50.204;8.844;2023-01-29T03:30:13;101320.19;;;-0.36;74.60
72570;BME280;60594;50.204;8.844;2023-01-29T03:33:34;101328.56;;;-0.16;74.13
72570;BME280;60594;50.204;8.844;2023-01-29T03:36:08;101314.44;;;-0.07;72.75
72570;BME280;60594;50.204;8.844;2023-01-29T03:38:35;101309.22;;;-0.09;72.41
72570;BME280;60594;50.204;8.844;2023-01-29T03:41:22;101326.38;;;0.08;72.29
72570;BME280;60594;50.204;8.844;2023-01-29T03:43:58;101323.94;;;-0.02;75.47
72570;BME280;60594;50.204;8.844;2023-01-29T03:46:34;101308.09;;;-0.43;73.65
72570;BME280;60594;50.204;8.844;2023-01-29T03:49:08;101304.19;;;-0.66;75.88
72570;BME280;60594;50.204;8.844;2023-01-29T03:52:00;101300.63;;;-0.61;76.73
72570;BME280;60594;50.204;8.844;2023-01-29T03:57:08;101322.31;;;-0.09;74.89
72570;BME280;60594;50.204;8.844;2023-01-29T04:02:50;101320.84;;;-0.23;72.25
72570;BME280;60594;50.204;8.844;2023-01-29T04:05:24;101330.78;;;-0.40;74.16
72570;BME280;60594;50.204;8.844;2023-01-29T04:08:23;101320.06;;;-0.27;71.81
72570;BME280;60594;50.204;8.844;2023-01-29T04:10:55;101322.31;;;-0.56;74.38
72570;BME280;60594;50.204;8.844;2023-01-29T04:13:23;101305.84;;;-0.61;74.67
72570;BME280;60594;50.204;8.844;2023-01-29T04:15:55;101314.09;;;-0.86;75.89
72570;BME280;60594;50.204;8.844;2023-01-29T04:18:46;101296.31;;;-1.18;77.33
72570;BME280;60594;50.204;8.844;2023-01-29T04:21:14;101282.50;;;-1.27;76.09
72570;BME280;60594;50.204;8.844;2023-01-29T04:23:41;101276.38;;;-1.25;76.91
72570;BME280;60594;50.204;8.844;2023-01-29T04:32:15;101277.19;;;-0.68;78.11
72570;BME280;60594;50.204;8.844;2023-01-29T04:35:08;101284.72;;;-0.52;76.04
72570;BME280;60594;50.204;8.844;2023-01-29T04:40:16;101307.19;;;-0.39;75.22
72570;BME280;60594;50.204;8.844;2023-01-29T04:42:54;101295.91;;;-0.44;75.74
72570;BME280;60594;50.204;8.844;2023-01-29T04:46:25;101297.63;;;-0.43;75.26
72570;BME280;60594;50.204;8.844;2023-01-29T04:49:01;101306.38;;;-0.44;75.54
72570;BME280;60594;50.204;8.844;2023-01-29T04:51:49;101317.78;;;-0.46;76.20
72570;BME280;60594;50.204;8.844;2023-01-29T04:54:39;101321.19;;;-0.43;74.68
72570;BME280;60594;50.204;8.844;2023-01-29T04:57:19;101314.25;;;-0.44;74.50
72570;BME280;60594;50.204;8.844;2023-01-29T05:00:01;101303.84;;;-0.48;76.18
72570;BME280;60594;50.204;8.844;2023-01-29T05:02:30;101305.44;;;-0.40;74.94
72570;BME280;60594;50.204;8.844;2023-01-29T05:04:59;101297.06;;;-0.58;76.18
72570;BME280;60594;50.204;8.844;2023-01-29T05:07:27;101290.84;;;-0.51;78.22
72570;BME280;60594;50.204;8.844;2023-01-29T05:09:55;101288.03;;;-0.42;75.39
72570;BME280;60594;50.204;8.844;2023-01-29T05:12:24;101294.91;;;-0.37;75.36
72570;BME280;60594;50.204;8.844;2023-01-29T05:14:53;101302.81;;;-0.40;75.90
72570;BME280;60594;50.204;8.844;2023-01-29T05:17:21;101299.44;;;-0.45;75.75
72570;BME280;60594;50.204;8.844;2023-01-29T05:19:48;101283.97;;;-0.58;76.48
72570;BME280;60594;50.204;8.844;2023-01-29T05:22:16;101274.91;;;-0.89;77.67
72570;BME280;60594;50.204;8.844;2023-01-29T05:24:43;101265.06;;;-1.25;79.04
72570;BME280;60594;50.204;8.844;2023-01-29T05:27:19;101271.19;;;-1.28;80.88
72570;BME280;60594;50.204;8.844;2023-01-29T05:30:05;101274.13;;;-0.94;80.50
72570;BME280;60594;50.204;8.844;2023-01-29T05:32:32;101276.53;;;-0.81;79.78
72570;BME280;60594;50.204;8.844;2023-01-29T05:34:58;101290.22;;;-0.65;78.79
72570;BME280;60594;50.204;8.844;2023-01-29T05:37:25;101292.81;;;-0.64;78.27
72570;BME280;60594;50.204;8.844;2023-01-29T05:39:51;101289.25;;;-0.61;78.29
72570;BME280;60594;50.204;8.844;2023-01-29T05:42:18;101297.03;;;-0.57;77.34
72570;BME280;60594;50.204;8.844;2023-01-29T05:44:44;101287.59;;;-0.65;78.11
72570;BME280;60594;50.204;8.844;2023-01-29T05:47:11;101288.59;;;-0.74;78.22
72570;BME280;60594;50.204;8.844;2023-01-29T05:49:37;101288.91;;;-0.92;79.76
72570;BME280;60594;50.204;8.844;2023-01-29T05:52:04;101289.53;;;-0.76;79.16
72570;BME280;60594;50.204;8.844;2023-01-29T05:54:30;101282.06;;;-1.00;79.35
72570;BME280;60594;50.204;8.844;2023-01-29T05:56:57;101286.34;;;-0.95;78.27
72570;BME280;60594;50.204;8.844;2023-01-29T05:59:23;101298.41;;;-0.86;78.48
72570;BME280;60594;50.204;8.844;2023-01-29T06:01:50;101308.06;;;-0.88;79.35
72570;BME280;60594;50.204;8.844;2023-01-29T06:04:16;101304.53;;;-0.87;79.12
72570;BME280;60594;50.204;8.844;2023-01-29T06:06:43;101307.91;;;-0.79;77.64
72570;BME280;60594;50.204;8.844;2023-01-29T06:09:10;101306.16;;;-0.79;77.28
72570;BME280;60594;50.204;8.844;2023-01-29T06:11:37;101293.22;;;-0.88;77.68
72570;BME280;60594;50.204;8.844;2023-01-29T06:14:04;101291.38;;;-0.81;78.66
72570;BME280;60594;50.204;8.844;2023-01-29T06:16:30;101280.84;;;-0.80;78.97
72570;BME280;60594;50.204;8.844;2023-01-29T06:18:57;101281.53;;;-0.69;77.38
72570;BME280;60594;50.204;8.844;2023-01-29T06:21:23;101280.69;;;-0.69;77.73
72570;BME280;60594;50.204;8.844;2023-01-29T06:23:53;101273.91;;;-0.81;79.38
72570;BME280;60594;50.204;8.844;2023-01-29T06:26:20;101283.88;;;-1.04;80.45
72570;BME280;60594;50.204;8.844;2023-01-29T06:28:49;101280.88;;;-1.34;82.23
72570;BME280;60594;50.204;8.844;2023-01-29T06:31:16;101275.22;;;-1.66;83.99
72570;BME280;60594;50.204;8.844;2023-01-29T06:33:43;101276.28;;;-1.79;84.55
72570;BME280;60594;50.204;8.844;2023-01-29T06:36:10;101269.88;;;-1.56;84.71
72570;BME280;60594;50.204;8.844;2023-01-29T06:38:36;101263.78;;;-1.58;83.53
72570;BME280;60594;50.204;8.844;2023-01-29T06:41:10;101276.13;;;-1.67;84.03
72570;BME280;60594;50.204;8.844;2023-01-29T06:43:38;101266.03;;;-1.31;83.55
72570;BME280;60594;50.204;8.844;2023-01-29T06:46:06;101267.22;;;-0.98;81.76
72570;BME280;60594;50.204;8.844;2023-01-29T06:48:33;101281.72;;;-0.78;80.26
72570;BME280;60594;50.204;8.844;2023-01-29T06:51:07;101281.66;;;-0.75;79.33
72570;BME280;60594;50.204;8.844;2023-01-29T06:53:35;101279.06;;;-0.76;79.09
72570;BME280;60594;50.204;8.844;2023-01-29T06:56:03;101289.56;;;-0.78;78.97
72570;BME280;60594;50.204;8.844;2023-01-29T06:58:30;101298.25;;;-0.76;79.31
72570;BME280;60594;50.204;8.844;2023-01-29T07:01:06;101299.22;;;-0.81;79.53
72570;BME280;60594;50.204;8.844;2023-01-29T07:03:33;101294.88;;;-0.84;79.62
72570;BME280;60594;50.204;8.844;2023-01-29T07:06:00;101305.44;;;-0.88;79.97
72570;BME280;60594;50.204;8.844;2023-01-29T07:08:27;101311.53;;;-0.89;80.31
72570;BME280;60594;50.204;8.844;2023-01-29T07:11:00;101322.88;;;-0.89;80.10
72570;BME280;60594;50.204;8.844;2023-01-29T07:13:26;101320.28;;;-0.90;79.65
72570;BME280;60594;50.204;8.844;2023-01-29T07:15:53;101330.75;;;-0.90;80.00
72570;BME280;60594;50.204;8.844;2023-01-29T07:18:19;101323.84;;;-0.94;80.25
72570;BME280;60594;50.204;8.844;2023-01-29T07:20:46;101317.75;;;-0.96;80.12
72570;BME280;60594;50.204;8.844;2023-01-29T07:23:13;101318.72;;;-1.02;79.77
72570;BME280;60594;50.204;8.844;2023-01-29T07:25:40;101316.06;;;-1.00;79.81
72570;BME280;60594;50.204;8.844;2023-01-29T07:28:06;101315.28;;;-1.04;80.63
72570;BME280;60594;50.204;8.844;2023-01-29T07:30:33;101317.91;;;-1.05;79.85
72570;BME280;60594;50.204;8.844;2023-01-29T07:33:04;101331.75;;;-0.99;80.25
72570;BME280;60594;50.204;8.844;2023-01-29T07:35:35;101330.09;;;-1.06;80.86
72570;BME280;60594;50.204;8.844;2023-01-29T07:38:02;101322.19;;;-1.01;81.35
72570;BME280;60594;50.204;8.844;2023-01-29T07:40:29;101320.53;;;-1.05;81.82
72570;BME280;60594;50.204;8.844;2023-01-29T07:42:59;101312.38;;;-1.42;82.12
72570;BME280;60594;50.204;8.844;2023-01-29T07:45:27;101305.63;;;-1.61;82.99
72570;BME280;60594;50.204;8.844;2023-01-29T07:47:55;101292.44;;;-1.49;82.35
72570;BME280;60594;50.204;8.844;2023-01-29T07:50:22;101288.19;;;-1.57;83.30
72570;BME280;60594;50.204;8.844;2023-01-29T07:52:50;101298.25;;;-1.32;81.25
72570;BME280;60594;50.204;8.844;2023-01-29T07:55:16;101291.06;;;-1.16;81.82
72570;BME280;60594;50.204;8.844;2023-01-29T07:57:43;101293.91;;;-1.31;82.25
72570;BME280;60594;50.204;8.844;2023-01-29T08:00:10;101308.44;;;-1.14;82.53
72570;BME280;60594;50.204;8.844;2023-01-29T08:02:40;101301.88;;;-1.40;81.38
72570;BME280;60594;50.204;8.844;2023-01-29T08:05:07;101326.03;;;-1.25;81.14
72570;BME280;60594;50.204;8.844;2023-01-29T08:07:34;101327.59;;;-1.10;81.58
72570;BME280;60594;50.204;8.844;2023-01-29T08:10:00;101326.66;;;-1.08;80.43
72570;BME280;60594;50.204;8.844;2023-01-29T08:12:27;101343.03;;;-0.94;80.94
72570;BME280;60594;50.204;8.844;2023-01-29T08:14:53;101348.16;;;-0.88;79.66
72570;BME280;60594;50.204;8.844;2023-01-29T08:17:20;101342.03;;;-0.87;80.18
72570;BME280;60594;50.204;8.844;2023-01-29T08:19:46;101315.88;;;-0.87;78.79
72570;BME280;60594;50.204;8.844;2023-01-29T08:22:12;101301.09;;;-0.91;79.58
72570;BME280;60594;50.204;8.844;2023-01-29T08:24:41;101291.00;;;-1.13;80.73
72570;BME280;60594;50.204;8.844;2023-01-29T08:27:08;101291.69;;;-1.01;78.69
72570;BME280;60594;50.204;8.844;2023-01-29T08:29:34;101297.72;;;-0.97;79.07
72570;BME280;60594;50.204;8.844;2023-01-29T08:32:01;101306.44;;;-0.95;79.97
72570;BME280;60594;50.204;8.844;2023-01-29T08:34:27;101303.66;;;-0.86;78.35
72570;BME280;60594;50.204;8.844;2023-01-29T08:36:54;101322.66;;;-0.77;78.47
72570;BME280;60594;50.204;8.844;2023-01-29T08:39:20;101331.34;;;-0.72;78.05
72570;BME280;60594;50.204;8.844;2023-01-29T08:41:47;101319.25;;;-0.80;79.00
72570;BME280;60594;50.204;8.844;2023-01-29T08:44:13;101300.47;;;-1.05;79.72
72570;BME280;60594;50.204;8.844;2023-01-29T08:46:40;101310.03;;;-1.02;78.79
72570;BME280;60594;50.204;8.844;2023-01-29T08:49:08;101317.47;;;-0.78;78.53
72570;BME280;60594;50.204;8.844;2023-01-29T08:51:34;101309.47;;;-0.69;78.18
72570;BME280;60594;50.204;8.844;2023-01-29T08:54:01;101316.34;;;-0.62;77.63
72570;BME280;60594;50.204;8.844;2023-01-29T08:56:27;101316.22;;;-0.56;77.90
72570;BME280;60594;50.204;8.844;2023-01-29T08:58:54;101325.81;;;-0.55;77.87
72570;BME280;60594;50.204;8.844;2023-01-29T09:01:20;101320.66;;;-0.60;78.71
72570;BME280;60594;50.204;8.844;2023-01-29T09:03:46;101340.59;;;-0.53;77.87
72570;BME280;60594;50.204;8.844;2023-01-29T09:06:13;101340.72;;;-0.60;78.21
72570;BME280;60594;50.204;8.844;2023-01-29T09:08:40;101352.84;;;-0.55;78.79
72570;BME280;60594;50.204;8.844;2023-01-29T09:11:07;101352.63;;;-0.43;78.36
72570;BME280;60594;50.204;8.844;2023-01-29T09:13:34;101360.63;;;-0.52;76.58
72570;BME280;60594;50.204;8.844;2023-01-29T09:16:01;101350.34;;;-0.61;78.22
72570;BME280;60594;50.204;8.844;2023-01-29T09:18:29;101365.97;;;-0.58;78.63
72570;BME280;60594;50.204;8.844;2023-01-29T09:20:57;101378.25;;;-0.61;77.82
72570;BME280;60594;50.204;8.844;2023-01-29T09:23:23;101374.97;;;-0.74;78.01
72570;BME280;60594;50.204;8.844;2023-01-29T09:25:50;101366.19;;;-0.71;78.61
72570;BME280;60594;50.204;8.844;2023-01-29T09:28:16;101377.56;;;-0.74;78.06
72570;BME280;60594;50.204;8.844;2023-01-29T09:30:43;101385.66;;;-0.87;79.61
72570;BME280;60594;50.204;8.844;2023-01-29T09:33:10;101374.16;;;-0.77;79.71
72570;BME280;60594;50.204;8.844;2023-01-29T09:35:41;101373.84;;;-0.59;78.74
72570;BME280;60594;50.204;8.844;2023-01-29T09:38:09;101360.72;;;-0.58;79.67
72570;BME280;60594;50.204;8.844;2023-01-29T09:46:14;101362.22;;;-0.42;76.95
72570;BME280;60594;50.204;8.844;2023-01-29T09:48:43;101369.25;;;-0.45;77.99
72570;BME280;60594;50.204;8.844;2023-01-29T09:51:25;101371.00;;;-0.44;76.00
72570;BME280;60594;50.204;8.844;2023-01-29T09:53:54;101377.13;;;-0.47;76.69
72570;BME280;60594;50.204;8.844;2023-01-29T09:56:23;101368.59;;;-0.59;77.03
72570;BME280;60594;50.204;8.844;2023-01-29T09:58:56;101380.09;;;-0.68;77.59
72570;BME280;60594;50.204;8.844;2023-01-29T10:01:34;101354.75;;;-0.64;78.72
72570;BME280;60594;50.204;8.844;2023-01-29T10:04:22;101340.22;;;-0.83;78.98
72570;BME280;60594;50.204;8.844;2023-01-29T10:18:02;101322.19;;;-1.01;80.75
72570;BME280;60594;50.204;8.844;2023-01-29T10:20:37;101307.38;;;-0.99;79.47
72570;BME280;60594;50.204;8.844;2023-01-29T10:23:26;101297.16;;;-1.14;78.95
72570;BME280;60594;50.204;8.844;2023-01-29T10:25:54;101305.41;;;-0.87;79.07
72570;BME280;60594;50.204;8.844;2023-01-29T10:28:28;101302.47;;;-0.69;76.19
72570;BME280;60594;50.204;8.844;2023-01-29T10:33:47;101292.75;;;-0.61;77.69
72570;BME280;60594;50.204;8.844;2023-01-29T10:36:18;101295.72;;;-0.80;77.92
72570;BME280;60594;50.204;8.844;2023-01-29T10:38:47;101288.16;;;-0.98;77.16
72570;BME280;60594;50.204;8.844;2023-01-29T10:52:48;101276.00;;;-0.52;77.85
72570;BME280;60594;50.204;8.844;2023-01-29T10:58:37;101256.69;;;-0.94;78.47
72570;BME280;60594;50.204;8.844;2023-01-29T11:01:04;101258.47;;;-0.96;77.82
72570;BME280;60594;50.204;8.844;2023-01-29T11:03:32;101252.47;;;-1.02;77.89
72570;BME280;60594;50.204;8.844;2023-01-29T11:11:45;101239.34;;;-0.52;76.17
72570;BME280;60594;50.204;8.844;2023-01-29T11:14:36;101236.97;;;-0.64;78.19
72570;BME280;60594;50.204;8.844;2023-01-29T11:17:13;101233.59;;;-0.69;78.45
72570;BME280;60594;50.204;8.844;2023-01-29T11:19:43;101226.84;;;-0.82;78.07
72570;BME280;60594;50.204;8.844;2023-01-29T11:22:17;101224.16;;;-0.79;77.47
72570;BME280;60594;50.204;8.844;2023-01-29T11:24:46;101222.22;;;-0.68;79.11
72570;BME280;60594;50.204;8.844;2023-01-29T11:27:33;101208.09;;;-0.60;77.29
72570;BME280;60594;50.204;8.844;2023-01-29T11:30:00;101206.59;;;-0.29;75.96
72570;BME280;60594;50.204;8.844;2023-01-29T11:32:29;101211.72;;;-0.23;77.65
72570;BME280;60594;50.204;8.844;2023-01-29T11:35:04;101191.16;;;0.00;76.04
72570;BME280;60594;50.204;8.844;2023-01-29T11:37:44;101191.41;;;-0.12;74.51
72570;BME280;60594;50.204;8.844;2023-01-29T11:40:32;101174.97;;;-0.18;74.96
72570;BME280;60594;50.204;8.844;2023-01-29T11:45:52;101186.91;;;-0.05;73.71
72570;BME280;60594;50.204;8.844;2023-01-29T11:48:27;101173.13;;;0.25;72.10
72570;BME280;60594;50.204;8.844;2023-01-29T11:50:58;101180.16;;;0.60;71.36
72570;BME280;60594;50.204;8.844;2023-01-29T11:53:37;101175.16;;;0.84;71.50
72570;BME280;60594;50.204;8.844;2023-01-29T11:56:39;101170.50;;;0.62;71.16
72570;BME280;60594;50.204;8.844;2023-01-29T11:59:27;101162.50;;;0.31;71.52
72570;BME280;60594;50.204;8.844;2023-01-29T12:01:55;101158.03;;;0.71;71.53
72570;BME280;60594;50.204;8.844;2023-01-29T12:04:29;101163.78;;;0.85;70.64
72570;BME280;60594;50.204;8.844;2023-01-29T12:06:55;101157.47;;;0.92;69.94
72570;BME280;60594;50.204;8.844;2023-01-29T12:09:25;101148.03;;;0.52;70.14
72570;BME280;60594;50.204;8.844;2023-01-29T12:11:53;101134.75;;;0.23;72.13
72570;BME280;60594;50.204;8.844;2023-01-29T12:14:30;101142.19;;;0.41;70.44
72570;BME280;60594;50.204;8.844;2023-01-29T12:19:36;101126.03;;;0.57;70.30
72570;BME280;60594;50.204;8.844;2023-01-29T12:22:14;101112.69;;;0.66;71.57
72570;BME280;60594;50.204;8.844;2023-01-29T12:24:49;101110.34;;;0.89;70.12
72570;BME280;60594;50.204;8.844;2023-01-29T12:27:29;101108.69;;;0.52;70.15
72570;BME280;60594;50.204;8.844;2023-01-29T12:30:08;101109.63;;;0.49;72.01
72570;BME280;60594;50.204;8.844;2023-01-29T12:35:25;101124.44;;;0.52;71.51
72570;BME280;60594;50.204;8.844;2023-01-29T12:38:06;101114.81;;;0.52;71.38
72570;BME280;60594;50.204;8.844;2023-01-29T12:40:46;101104.75;;;0.36;72.08
72570;BME280;60594;50.204;8.844;2023-01-29T12:43:16;101104.53;;;0.43;71.13
72570;BME280;60594;50.204;8.844;2023-01-29T12:45:47;101100.97;;;0.46;71.08
72570;BME280;60594;50.204;8.844;2023-01-29T12:48:24;101094.50;;;0.60;70.73
72570;BME280;60594;50.204;8.844;2023-01-29T12:50:55;101090.06;;;0.62;69.59
72570;BME280;60594;50.204;8.844;2023-01-29T12:53:32;101087.31;;;0.33;70.69
72570;BME280;60594;50.204;8.844;2023-01-29T12:56:18;101077.94;;;0.25;72.44
72570;BME280;60594;50.204;8.844;2023-01-29T12:58:49;101078.59;;;0.33;72.06
72570;BME280;60594;50.204;8.844;2023-01-29T13:01:27;101064.81;;;0.25;72.49
72570;BME280;60594;50.204;8.844;2023-01-29T13:04:10;101058.63;;;-0.08;73.70
72570;BME280;60594;50.204;8.844;2023-01-29T13:06:44;101052.63;;;-0.13;73.13
72570;BME280;60594;50.204;8.844;2023-01-29T13:09:16;101055.56;;;-0.27;74.26
72570;BME280;60594;50.204;8.844;2023-01-29T13:11:53;101046.88;;;-0.29;74.33
72570;BME280;60594;50.204;8.844;2023-01-29T13:14:24;101051.00;;;-0.19;73.61
72570;BME280;60594;50.204;8.844;2023-01-29T13:17:12;101055.16;;;-0.09;73.44
72570;BME280;60594;50.204;8.844;2023-01-29T13:19:42;101051.53;;;-0.03;73.60
72570;BME280;60594;50.204;8.844;2023-01-29T13:22:31;101049.41;;;0.11;72.69
72570;BME280;60594;50.204;8.844;2023-01-29T13:24:59;101052.56;;;0.25;72.54
72570;BME280;60594;50.204;8.844;2023-01-29T13:27:28;101066.03;;;0.10;73.17
72570;BME280;60594;50.204;8.844;2023-01-29T13:29:56;101060.47;;;0.24;72.73
72570;BME280;60594;50.204;8.844;2023-01-29T13:32:27;101045.53;;;0.27;72.81
72570;BME280;60594;50.204;8.844;2023-01-29T13:35:10;101054.63;;;0.48;72.32
72570;BME280;60594;50.204;8.844;2023-01-29T13:37:47;101060.47;;;0.57;71.24
72570;BME280;60594;50.204;8.844;2023-01-29T13:40:25;101045.25;;;0.38;72.04
72570;BME280;60594;50.204;8.844;2023-01-29T13:42:53;101042.84;;;0.30;72.37
72570;BME280;60594;50.204;8.844;2023-01-29T13:45:22;101048.53;;;0.46;71.22
72570;BME280;60594;50.204;8.844;2023-01-29T13:47:51;101042.94;;;0.26;72.54
72570;BME280;60594;50.204;8.844;2023-01-29T13:50:24;101034.94;;;0.32;72.06
72570;BME280;60594;50.204;8.844;2023-01-29T13:52:59;101040.69;;;0.12;72.41
72570;BME280;60594;50.204;8.844;2023-01-29T13:55:35;101035.25;;;0.18;72.62
72570;BME280;60594;50.204;8.844;2023-01-29T13:58:04;101028.81;;;0.33;73.36
72570;BME280;60594;50.204;8.844;2023-01-29T14:07:56;101013.75;;;0.39;71.83
72570;BME280;60594;50.204;8.844;2023-01-29T14:10:29;101022.28;;;0.47;72.23
72570;BME280;60594;50.204;8.844;2023-01-29T14:15:33;101003.47;;;0.64;70.35
72570;BME280;60594;50.204;8.844;2023-01-29T14:20:51;101003.22;;;0.74;70.51
72570;BME280;60594;50.204;8.844;2023-01-29T14:26:04;100990.94;;;0.75;70.39
72570;BME280;60594;50.204;8.844;2023-01-29T14:28:55;101002.41;;;0.71;70.85
72570;BME280;60594;50.204;8.844;2023-01-29T14:31:31;101001.22;;;0.82;70.26
72570;BME280;60594;50.204;8.844;2023-01-29T14:34:03;101001.63;;;0.69;70.98
72570;BME280;60594;50.204;8.844;2023-01-29T14:36:39;100994.47;;;0.74;71.56
72570;BME280;60594;50.204;8.844;2023-01-29T14:40:06;100992.28;;;0.59;71.22
72570;BME280;60594;50.204;8.844;2023-01-29T14:55:43;100988.97;;;0.19;72.63
72570;BME280;60594;50.204;8.844;2023-01-29T14:58:17;100985.84;;;0.04;74.31
72570;BME280;60594;50.204;8.844;2023-01-29T15:00:49;100974.06;;;-0.13;73.53
72570;BME280;60594;50.204;8.844;2023-01-29T15:03:27;100976.69;;;-0.13;73.99
72570;BME280;60594;50.204;8.844;2023-01-29T15:05:56;100972.06;;;-0.04;74.64
72570;BME280;60594;50.204;8.844;2023-01-29T15:11:24;100975.66;;;-0.08;74.09
72570;BME280;60594;50.204;8.844;2023-01-29T15:14:07;100971.00;;;0.05;74.68